createdAt,value
2019-02-20T00:00:20.259Z,5.53
2019-02-20T00:03:03.360Z,7.28
2019-02-20T00:05:44.361Z,7.97
2019-02-20T00:08:28.190Z,5.72
2019-02-20T00:11:08.463Z,9.05
2019-02-20T00:13:50.860Z,7.42
2019-02-20T00:16:31.193Z,7.47
2019-02-20T00:19:13.565Z,10.30
2019-02-20T00:22:00.195Z,8.15
2019-02-20T00:24:41.897Z,9.18
2019-02-20T00:27:23.169Z,8.18
2019-02-20T00:30:06.670Z,9.15
2019-02-20T00:32:53.301Z,8.38
2019-02-20T00:35:36.369Z,10.50
2019-02-20T00:38:25.033Z,13.18
2019-02-20T00:41:04.674Z,11.10
2019-02-20T00:43:51.259Z,7.37
2019-02-20T00:46:30.019Z,8.43
2019-02-20T00:49:16.104Z,9.23
2019-02-20T00:52:06.321Z,15.65
2019-02-20T00:54:47.901Z,13.68
2019-02-20T00:57:27.507Z,11.50
2019-02-20T01:00:12.017Z,7.37
2019-02-20T01:02:56.054Z,7.15
2019-02-20T01:05:36.079Z,7.72
2019-02-20T01:08:23.435Z,7.53
2019-02-20T01:11:06.512Z,8.48
2019-02-20T01:13:43.313Z,11.18
2019-02-20T01:16:28.202Z,12.00
2019-02-20T01:19:08.767Z,15.45
2019-02-20T01:21:53.316Z,12.23
2019-02-20T01:24:34.991Z,8.93
2019-02-20T01:27:13.941Z,12.13
2019-02-20T01:29:52.119Z,11.95
2019-02-20T01:32:34.522Z,9.93
2019-02-20T01:35:20.395Z,13.72
2019-02-20T01:37:57.224Z,9.13
2019-02-20T01:40:38.578Z,10.05
2019-02-20T01:43:22.024Z,12.73
2019-02-20T01:46:03.026Z,9.43
2019-02-20T01:48:45.924Z,10.25
2019-02-20T01:51:29.227Z,9.25
2019-02-20T01:54:08.801Z,13.70
2019-02-20T01:56:52.629Z,10.45
2019-02-20T01:59:31.531Z,8.58
2019-02-20T02:02:15.307Z,7.60
2019-02-20T02:05:01.081Z,9.50
2019-02-20T02:07:41.621Z,11.15
2019-02-20T02:10:25.307Z,11.75
2019-02-20T02:13:07.736Z,9.18
2019-02-20T02:15:49.508Z,13.22
2019-02-20T02:18:30.442Z,11.55
2019-02-20T02:21:09.172Z,9.78
2019-02-20T02:23:51.740Z,10.13
2019-02-20T02:26:30.388Z,10.55
2019-02-20T02:29:10.229Z,8.58
2019-02-20T02:31:50.543Z,12.30
2019-02-20T02:34:33.646Z,11.40
2019-02-20T02:37:11.146Z,10.20
2019-02-20T02:39:54.218Z,12.40
2019-02-20T02:42:34.518Z,9.90
2019-02-20T02:45:19.478Z,11.75
2019-02-20T02:48:00.175Z,8.30
2019-02-20T02:50:42.454Z,10.55
2019-02-20T02:53:30.359Z,8.80
2019-02-20T02:56:05.511Z,12.80
2019-02-20T02:58:56.655Z,9.93
2019-02-20T03:01:37.627Z,10.43
2019-02-20T03:04:20.757Z,13.32
2019-02-20T03:07:03.125Z,9.10
2019-02-20T03:09:45.586Z,11.53
2019-02-20T03:12:25.831Z,12.78
2019-02-20T03:15:17.337Z,10.78
2019-02-20T03:17:58.334Z,10.10
2019-02-20T03:20:40.035Z,13.40
2019-02-20T03:23:28.065Z,13.45
2019-02-20T03:26:14.676Z,11.30
2019-02-20T03:28:57.339Z,12.35
2019-02-20T03:31:35.239Z,11.10
2019-02-20T03:34:16.980Z,10.38
2019-02-20T03:36:55.067Z,9.83
2019-02-20T03:39:32.607Z,12.40
2019-02-20T03:42:17.870Z,15.88
2019-02-20T03:44:58.143Z,9.73
2019-02-20T03:47:37.073Z,9.55
2019-02-20T03:50:18.813Z,12.05
2019-02-20T03:52:59.075Z,11.95
2019-02-20T03:55:46.375Z,12.68
2019-02-20T03:58:26.676Z,11.15
2019-02-20T04:01:03.051Z,12.23
2019-02-20T04:03:40.279Z,11.05
2019-02-20T04:06:21.949Z,10.20
2019-02-20T04:09:05.375Z,10.18
2019-02-20T04:11:43.981Z,15.05
2019-02-20T04:14:26.382Z,11.80
2019-02-20T04:17:13.576Z,9.73
2019-02-20T04:19:52.587Z,10.55
2019-02-20T04:22:34.958Z,14.85
2019-02-20T04:25:17.745Z,8.58
2019-02-20T04:28:02.587Z,12.23
2019-02-20T04:30:40.789Z,11.63
2019-02-20T04:33:20.380Z,13.85
2019-02-20T04:36:03.481Z,11.45
2019-02-20T04:38:50.004Z,13.50
2019-02-20T04:41:34.690Z,9.45
2019-02-20T04:44:18.296Z,13.30
2019-02-20T04:46:57.965Z,9.13
2019-02-20T04:49:43.196Z,9.88
2019-02-20T04:52:28.397Z,9.95
2019-02-20T04:55:10.760Z,11.85
2019-02-20T04:57:55.972Z,8.00
2019-02-20T05:00:37.697Z,13.30
2019-02-20T05:03:18.683Z,8.38
2019-02-20T05:06:02.502Z,16.60
2019-02-20T05:08:43.510Z,11.73
2019-02-20T05:11:25.129Z,13.65
2019-02-20T05:14:09.659Z,9.73
2019-02-20T05:16:52.776Z,9.48
2019-02-20T05:19:32.916Z,12.68
2019-02-20T05:22:13.906Z,12.30
2019-02-20T05:24:58.582Z,12.25
2019-02-20T05:27:39.402Z,8.60
2019-02-20T05:30:22.011Z,9.80
2019-02-20T05:33:03.445Z,13.70
2019-02-20T05:35:45.877Z,11.25
2019-02-20T05:38:25.304Z,12.23
2019-02-20T05:41:06.019Z,11.88
2019-02-20T05:43:48.388Z,14.68
2019-02-20T05:46:28.690Z,11.25
2019-02-20T05:49:07.896Z,14.38
2019-02-20T05:51:49.320Z,12.33
2019-02-20T05:54:35.783Z,16.45
2019-02-20T05:57:19.005Z,21.52
2019-02-20T05:59:56.862Z,12.05
2019-02-20T06:02:43.567Z,17.85
2019-02-20T06:05:24.727Z,17.02
2019-02-20T06:08:05.568Z,12.60
2019-02-20T06:10:43.192Z,17.85
2019-02-20T06:13:29.631Z,14.98
2019-02-20T06:16:14.790Z,18.57
2019-02-20T06:18:55.429Z,15.55
2019-02-20T06:21:39.904Z,12.25
2019-02-20T06:24:19.612Z,14.10
2019-02-20T06:27:07.890Z,9.65
2019-02-20T06:29:47.762Z,14.95
2019-02-20T06:32:33.707Z,9.40
2019-02-20T06:35:12.791Z,11.97
2019-02-20T06:37:51.509Z,15.85
2019-02-20T06:40:33.639Z,15.95
2019-02-20T06:43:17.711Z,14.63
2019-02-20T06:45:56.609Z,12.28
2019-02-20T06:48:36.011Z,14.87
2019-02-20T06:51:16.132Z,11.90
2019-02-20T06:53:51.457Z,13.93
2019-02-20T06:56:29.416Z,11.28
2019-02-20T06:59:17.129Z,9.83
2019-02-20T07:01:57.909Z,15.05
2019-02-20T07:04:36.647Z,13.08
2019-02-20T07:07:22.548Z,10.88
2019-02-20T07:10:32.927Z,20.15
2019-02-20T07:13:14.651Z,11.40
2019-02-20T07:16:06.972Z,10.20
2019-02-20T07:18:53.452Z,18.77
2019-02-20T07:21:52.626Z,11.45
2019-02-20T07:24:43.455Z,19.57
2019-02-20T07:27:34.719Z,10.30
2019-02-20T07:30:17.331Z,12.20
2019-02-20T07:33:01.630Z,15.48
2019-02-20T07:35:42.555Z,11.15
2019-02-20T07:38:34.996Z,13.55
2019-02-20T07:41:16.030Z,10.70
2019-02-20T07:43:57.763Z,11.08
2019-02-20T07:46:37.406Z,9.05
2019-02-20T07:49:21.837Z,9.08
2019-02-20T07:51:59.380Z,9.68
2019-02-20T07:54:39.667Z,9.20
2019-02-20T07:57:28.240Z,8.30
2019-02-20T08:00:12.871Z,8.83
2019-02-20T08:02:56.639Z,21.15
2019-02-20T08:05:39.174Z,14.33
2019-02-20T08:08:16.217Z,11.60
2019-02-20T08:10:54.725Z,9.80
2019-02-20T08:13:38.918Z,13.80
2019-02-20T08:16:09.872Z,15.48
2019-02-20T08:18:51.938Z,12.13
2019-02-20T08:21:38.079Z,10.75
2019-02-20T08:24:25.773Z,16.67
2019-02-20T08:27:06.381Z,12.70
2019-02-20T08:29:50.883Z,11.57
2019-02-20T08:32:30.775Z,17.15
2019-02-20T08:35:13.537Z,15.05
2019-02-20T08:37:51.655Z,13.45
2019-02-20T08:40:36.289Z,15.08
2019-02-20T08:43:19.959Z,15.03
2019-02-20T08:45:58.288Z,13.80
2019-02-20T08:48:38.589Z,17.25
2019-02-20T08:51:23.089Z,16.40
2019-02-20T08:54:04.763Z,18.10
2019-02-20T08:56:44.519Z,15.95
2019-02-20T08:59:23.293Z,20.12
2019-02-20T09:02:03.611Z,14.53
2019-02-20T09:04:38.775Z,18.80
2019-02-20T09:07:24.753Z,19.85
2019-02-20T09:10:05.197Z,14.40
2019-02-20T09:12:46.198Z,14.78
2019-02-20T09:15:27.203Z,19.77
2019-02-20T09:18:04.524Z,19.35
2019-02-20T09:20:48.294Z,14.73
2019-02-20T09:23:28.803Z,16.65
2019-02-20T09:26:10.664Z,13.35
2019-02-20T09:28:52.204Z,15.38
2019-02-20T09:31:31.079Z,15.45
2019-02-20T09:34:08.608Z,14.98
2019-02-20T09:36:54.511Z,14.93
2019-02-20T09:39:39.680Z,18.87
2019-02-20T09:42:22.111Z,17.32
2019-02-20T09:45:08.686Z,14.83
2019-02-20T09:47:44.813Z,17.67
2019-02-20T09:50:23.031Z,13.62
2019-02-20T09:53:05.503Z,25.40
2019-02-20T09:55:51.587Z,16.62
2019-02-20T09:58:28.820Z,20.08
2019-02-20T10:01:05.622Z,15.03
2019-02-20T10:03:52.220Z,17.32
2019-02-20T10:06:29.721Z,21.42
2019-02-20T10:09:09.977Z,15.30
2019-02-20T10:11:51.723Z,21.60
2019-02-20T10:14:32.725Z,21.12
2019-02-20T10:17:12.994Z,26.68
2019-02-20T10:19:53.304Z,18.25
2019-02-20T10:22:35.701Z,17.07
2019-02-20T10:25:12.579Z,17.80
2019-02-20T10:27:54.898Z,16.48
2019-02-20T10:30:33.107Z,16.97
2019-02-20T10:33:11.301Z,20.30
2019-02-20T10:35:50.903Z,15.60
2019-02-20T10:38:29.123Z,15.65
2019-02-20T10:41:15.035Z,16.48
2019-02-20T10:43:55.314Z,15.48
2019-02-20T10:46:32.807Z,27.93
2019-02-20T10:49:18.755Z,21.07
2019-02-20T10:51:52.714Z,14.53
2019-02-20T10:54:33.043Z,18.85
2019-02-20T10:57:16.112Z,15.83
2019-02-20T11:00:00.645Z,20.12
2019-02-20T11:02:44.022Z,20.62
2019-02-20T11:05:23.379Z,15.32
2019-02-20T11:08:02.192Z,21.02
2019-02-20T11:10:48.822Z,27.85
2019-02-20T11:13:29.851Z,23.47
2019-02-20T11:16:06.119Z,19.00
2019-02-20T11:18:48.719Z,18.20
2019-02-20T11:21:28.655Z,26.50
2019-02-20T11:24:15.254Z,17.67
2019-02-20T11:27:04.132Z,20.17
2019-02-20T11:29:44.256Z,18.17
2019-02-20T11:32:25.258Z,20.08
2019-02-20T11:35:06.931Z,17.00
2019-02-20T11:37:53.533Z,26.62
2019-02-20T11:40:32.570Z,18.27
2019-02-20T11:43:12.018Z,20.57
2019-02-20T11:45:50.935Z,20.32
2019-02-20T11:48:29.165Z,15.88
2019-02-20T11:51:04.741Z,15.98
2019-02-20T11:53:46.267Z,14.95
2019-02-20T11:56:27.970Z,16.65
2019-02-20T11:59:11.738Z,15.98
2019-02-20T12:01:52.070Z,16.25
2019-02-20T12:04:40.746Z,16.35
2019-02-20T12:07:18.780Z,19.70
2019-02-20T12:09:58.574Z,17.25
2019-02-20T12:12:47.275Z,21.65
2019-02-20T12:15:22.677Z,20.27
2019-02-20T12:18:06.296Z,16.27
2019-02-20T12:20:45.352Z,19.12
2019-02-20T12:23:24.090Z,15.60
2019-02-20T12:26:03.142Z,15.53
2019-02-20T12:28:47.213Z,16.12
2019-02-20T12:31:33.553Z,17.80
2019-02-20T12:34:15.818Z,21.33
2019-02-20T12:36:51.386Z,15.95
2019-02-20T12:39:43.587Z,19.52
2019-02-20T12:42:24.557Z,22.62
2019-02-20T12:45:06.923Z,18.73
2019-02-20T12:47:42.659Z,16.95
2019-02-20T12:50:22.033Z,19.27
2019-02-20T12:53:11.371Z,21.60
2019-02-20T12:55:53.782Z,19.35
2019-02-20T12:58:35.496Z,18.17
2019-02-20T13:01:26.970Z,17.77
2019-02-20T13:04:12.198Z,18.48
2019-02-20T13:06:59.583Z,18.52
2019-02-20T13:09:33.120Z,18.25
2019-02-20T13:12:15.202Z,15.78
2019-02-20T13:14:56.880Z,14.47
2019-02-20T13:17:35.777Z,20.68
2019-02-20T13:20:16.828Z,17.60
2019-02-20T13:22:59.832Z,16.30
2019-02-20T13:25:42.899Z,18.00
2019-02-20T13:28:25.184Z,19.00
2019-02-20T13:31:03.306Z,14.13
2019-02-20T13:33:43.183Z,15.90
2019-02-20T13:36:28.267Z,13.05
2019-02-20T13:39:14.318Z,14.07
2019-02-20T13:41:49.758Z,13.43
2019-02-20T13:44:30.018Z,17.30
2019-02-20T13:47:08.835Z,19.30
2019-02-20T13:49:45.022Z,22.10
2019-02-20T13:52:24.473Z,15.98
2019-02-20T13:55:03.525Z,19.85
2019-02-20T13:57:47.297Z,15.78
2019-02-20T14:00:24.825Z,16.60
2019-02-20T14:03:03.035Z,15.68
2019-02-20T14:05:42.332Z,18.05
2019-02-20T14:08:18.702Z,26.30
2019-02-20T14:10:59.874Z,15.43
2019-02-20T14:13:40.032Z,18.85
2019-02-20T14:16:17.258Z,16.73
2019-02-20T14:18:55.034Z,17.50
2019-02-20T14:21:33.705Z,12.78
2019-02-20T14:24:11.743Z,18.60
2019-02-20T14:26:49.081Z,20.75
2019-02-20T14:29:37.427Z,14.63
2019-02-20T14:32:13.020Z,16.77
2019-02-20T14:35:00.906Z,12.40
2019-02-20T14:37:42.743Z,12.35
2019-02-20T14:40:23.060Z,12.88
2019-02-20T14:43:02.618Z,14.98
2019-02-20T14:45:43.378Z,15.13
2019-02-20T14:48:19.788Z,13.83
2019-02-20T14:51:11.335Z,13.53
2019-02-20T14:53:55.750Z,14.58
2019-02-20T14:56:36.023Z,10.03
2019-02-20T14:59:16.179Z,17.40
2019-02-20T15:02:00.126Z,11.97
2019-02-20T15:04:41.127Z,9.18
2019-02-20T15:07:19.324Z,12.30
2019-02-20T15:10:00.358Z,9.70
2019-02-20T15:12:40.315Z,11.35
2019-02-20T15:15:22.218Z,13.35
2019-02-20T15:18:02.665Z,11.25
2019-02-20T15:20:41.070Z,10.72
2019-02-20T15:23:23.263Z,9.00
2019-02-20T15:26:05.664Z,13.55
2019-02-20T15:28:43.166Z,14.07
2019-02-20T15:31:33.226Z,14.05
2019-02-20T15:34:06.567Z,14.07
2019-02-20T15:36:50.381Z,10.28
2019-02-20T15:39:29.242Z,12.33
2019-02-20T15:42:10.633Z,17.52
2019-02-20T15:44:49.212Z,9.38
2019-02-20T15:47:26.523Z,14.00
2019-02-20T15:50:06.275Z,9.13
2019-02-20T15:52:51.338Z,11.00
2019-02-20T15:55:31.048Z,10.85
2019-02-20T15:58:11.377Z,17.05
2019-02-20T16:00:55.178Z,13.68
2019-02-20T16:03:32.679Z,12.73
2019-02-20T16:06:22.052Z,13.55
2019-02-20T16:09:02.382Z,11.43
2019-02-20T16:11:42.411Z,12.65
2019-02-20T16:14:19.484Z,10.80
2019-02-20T16:17:02.553Z,12.40
2019-02-20T16:19:47.057Z,8.65
2019-02-20T16:22:30.555Z,13.38
2019-02-20T16:25:05.589Z,12.40
2019-02-20T16:27:47.491Z,12.68
2019-02-20T16:30:29.462Z,15.58
2019-02-20T16:33:07.683Z,23.90
2019-02-20T16:35:48.358Z,35.78
2019-02-20T16:38:23.634Z,20.52
2019-02-20T16:41:04.537Z,16.70
2019-02-20T16:43:46.307Z,14.50
2019-02-20T16:46:28.323Z,16.65
2019-02-20T16:49:07.371Z,14.98
2019-02-20T16:51:45.262Z,18.07
2019-02-20T16:54:30.023Z,17.10
2019-02-20T16:57:15.475Z,12.93
2019-02-20T16:59:53.001Z,14.50
2019-02-20T17:02:29.840Z,13.18
2019-02-20T17:05:14.259Z,11.68
2019-02-20T17:07:48.998Z,15.55
2019-02-20T17:10:30.677Z,15.65
2019-02-20T17:16:10.926Z,19.73
2019-02-20T17:18:49.780Z,18.73
2019-02-20T17:21:27.982Z,13.70
2019-02-20T17:24:14.611Z,18.00
2019-02-20T17:26:52.302Z,16.00
2019-02-20T17:29:31.686Z,23.80
2019-02-20T17:32:13.377Z,39.15
2019-02-20T17:34:53.016Z,54.42
2019-02-20T17:37:34.401Z,47.67
2019-02-20T17:40:12.171Z,28.62
2019-02-20T17:42:56.204Z,27.98
2019-02-20T17:45:36.288Z,22.32
2019-02-20T17:48:15.735Z,22.32
2019-02-20T17:50:53.943Z,19.20
2019-02-20T17:53:33.650Z,18.40
2019-02-20T17:56:14.025Z,14.30
2019-02-20T17:58:53.817Z,13.03
2019-02-20T18:01:29.867Z,15.30
2019-02-20T18:04:10.698Z,16.50
2019-02-20T18:06:50.295Z,13.85
2019-02-20T18:09:32.001Z,12.68
2019-02-20T18:12:10.930Z,12.70
2019-02-20T18:14:52.288Z,14.95
2019-02-20T18:17:32.200Z,12.00
2019-02-20T18:20:16.034Z,18.02
2019-02-20T18:22:54.206Z,13.40
2019-02-20T18:25:31.734Z,15.05
2019-02-20T18:28:14.103Z,18.40
2019-02-20T18:30:53.036Z,23.25
2019-02-20T18:33:34.041Z,31.37
2019-02-20T18:36:14.989Z,23.85
2019-02-20T18:38:54.754Z,32.35
2019-02-20T18:41:32.430Z,19.70
2019-02-20T18:44:15.213Z,23.20
2019-02-20T18:46:56.590Z,21.48
2019-02-20T18:49:35.045Z,23.60
2019-02-20T18:52:15.444Z,25.02
2019-02-20T18:54:52.199Z,22.90
2019-02-20T18:57:29.015Z,19.40
2019-02-20T19:00:13.991Z,24.43
2019-02-20T19:02:59.982Z,25.10
2019-02-20T19:05:39.383Z,22.95
2019-02-20T19:08:37.550Z,21.77
2019-02-20T19:11:36.431Z,20.72
2019-02-20T19:14:27.530Z,21.20
2019-02-20T19:17:35.158Z,15.90
2019-02-20T19:20:18.242Z,19.85
2019-02-20T19:23:34.776Z,22.35
2019-02-20T19:26:16.580Z,20.77
2019-02-20T19:29:02.656Z,18.95
2019-02-20T19:31:53.326Z,17.92
2019-02-20T19:34:40.380Z,15.40
2019-02-20T19:37:26.580Z,17.55
2019-02-20T19:40:36.507Z,17.40
2019-02-20T19:43:38.387Z,16.65
2019-02-20T19:46:40.384Z,12.73
2019-02-20T19:49:26.191Z,14.68
2019-02-20T19:52:27.806Z,19.87
2019-02-20T19:55:28.792Z,11.55
2019-02-20T19:58:11.873Z,13.15
2019-02-20T20:01:08.269Z,16.27
2019-02-20T20:03:52.743Z,13.78
2019-02-20T20:06:46.979Z,19.05
2019-02-20T20:09:39.903Z,17.15
2019-02-20T20:12:39.186Z,16.62
2019-02-20T20:15:26.897Z,16.73
2019-02-20T20:18:20.101Z,14.83
2019-02-20T20:21:16.832Z,13.35
2019-02-20T20:24:23.653Z,17.60
2019-02-20T20:27:28.891Z,15.48
2019-02-20T20:30:28.747Z,11.95
2019-02-20T20:33:39.208Z,12.25
2019-02-20T20:36:45.748Z,13.00
2019-02-20T20:39:43.890Z,14.65
2019-02-20T20:42:41.090Z,14.47
2019-02-20T20:45:40.157Z,11.35
2019-02-20T20:48:35.153Z,13.03
2019-02-20T20:51:26.928Z,13.68
2019-02-20T20:54:20.568Z,16.50
2019-02-20T20:57:20.710Z,14.78
2019-02-20T21:00:16.591Z,15.35
2019-02-20T21:02:59.694Z,16.93
2019-02-20T21:05:54.944Z,17.17
2019-02-20T21:08:50.397Z,15.70
2019-02-20T21:11:56.074Z,19.50
2019-02-20T21:14:50.195Z,16.05
2019-02-20T21:17:57.266Z,16.23
2019-02-20T21:20:55.569Z,16.45
2019-02-20T21:24:11.237Z,18.05
2019-02-20T21:26:54.699Z,17.75
2019-02-20T21:29:48.272Z,19.82
2019-02-20T21:32:33.956Z,15.10
2019-02-20T21:35:28.502Z,22.27
2019-02-20T21:38:20.005Z,15.48
2019-02-20T21:41:17.803Z,14.30
2019-02-20T21:44:17.310Z,13.53
2019-02-20T21:47:07.106Z,15.53
2019-02-20T21:50:20.751Z,18.12
2019-02-20T21:53:04.817Z,16.75
2019-02-20T21:55:54.064Z,14.38
2019-02-20T21:58:41.511Z,13.40
2019-02-20T22:01:30.301Z,15.95
2019-02-20T22:04:34.280Z,16.82
2019-02-20T22:07:41.881Z,17.07
2019-02-20T22:10:45.777Z,28.80
2019-02-20T22:13:40.529Z,17.15
2019-02-20T22:16:42.316Z,14.20
2019-02-20T22:19:37.288Z,13.25
2019-02-20T22:22:25.992Z,13.55
2019-02-20T22:25:31.518Z,18.95
2019-02-20T22:28:34.605Z,12.18
2019-02-20T22:31:46.690Z,16.97
2019-02-20T22:34:47.780Z,15.70
2019-02-20T22:37:27.622Z,15.72
2019-02-20T22:40:28.199Z,18.15
2019-02-20T22:43:30.897Z,17.82
2019-02-20T22:46:17.548Z,21.50
2019-02-20T22:49:16.698Z,18.02
2019-02-20T22:51:59.799Z,14.35
2019-02-20T22:54:47.828Z,19.60
2019-02-20T22:57:41.210Z,20.27
2019-02-20T23:00:46.930Z,15.53
2019-02-20T23:03:47.503Z,18.17
2019-02-20T23:06:42.611Z,14.87
2019-02-20T23:09:40.334Z,13.88
2019-02-20T23:12:23.516Z,18.40
2019-02-20T23:15:05.271Z,16.35
2019-02-20T23:17:42.670Z,14.35
2019-02-20T23:20:22.333Z,16.25
2019-02-20T23:23:02.539Z,17.37
2019-02-20T23:25:46.340Z,13.65
2019-02-20T23:28:26.640Z,14.23
2019-02-20T23:31:07.641Z,13.68
2019-02-20T23:33:47.941Z,11.60
2019-02-20T23:36:28.242Z,14.98
2019-02-20T23:39:07.847Z,16.17
2019-02-20T23:41:48.845Z,11.05
2019-02-20T23:44:31.214Z,12.95
2019-02-20T23:47:13.722Z,10.63
2019-02-20T23:49:57.448Z,9.43
2019-02-20T23:52:37.055Z,10.25
2019-02-20T23:55:16.693Z,9.85
2019-02-20T23:57:56.703Z,11.45
